Buffalo, WY (82834)

12:05 AM MST on February 07, 2016 (GMT -0700)
Buffalo | | Change Station
CLOSE
Current Station
Personal Weather Station
Location: Buffalo, WY
Elevation: 4708 ft
Nearby Weather Stations

Elev 4708 ft 44.34 °N, 106.70 °W | Updated 20 seconds ago

Light Snow
Light Snow
32.9 °F
Feels Like 25 °F
N
9.8
Wind Variable Wind from NNW
Gusts 12.3 mph

Today
High -- | Low -- °F
--% Chance of Precip.
Yesterday
High -- | Low -- °F
Precip. -- in
Pressure 30.14 in
Visibility 8.0 miles
Clouds Overcast 5500 ft
Windchill 25 °F
Dew Point 24 °F
Humidity 70%
Rainfall 0.00 in
Snow Depth Not available.
7:18 AM 5:24 PM
Waning Crescent, 2% visible
METAR KBYG 070653Z AUTO 33022G35KT 8SM -SN OVC055 00/M06 A3014 RMK AO2 PK WND 33035/0622 SNB51 SLP207 P0000 T00001056 401221022 $
Pressure 30.14 in
Visibility 8.0 miles
Clouds Overcast 5500 ft
Windchill 25 °F
Dew Point 24 °F
Humidity 70%
Rainfall 0.00 in
Snow Depth Not available.
7:18 AM 5:24 PM
Waning Crescent, 2% visible
METAR KBYG 070653Z AUTO 33022G35KT 8SM -SN OVC055 00/M06 A3014 RMK AO2 PK WND 33035/0622 SNB51 SLP207 P0000 T00001056 401221022 $

10-Day Weather Forecast

Almanac

Astronomy

Feb. 07, 2016 Rise Set
Actual Time
Civil Twilight
Nautical Twilight
Astronomical Twilight
Moon
Length of Visible Light
Length of Day
Tomorrow will be .
, % of the Moon is Illuminated

Today's Extremes

State Highs State Lows

Community

WunderPhotos

Upload Photos

1,891,174 photos uploaded!

WunderBlog® & News

Nearby

Air Quality

  Air Quality AQ Index Pollutant
Not available.

Snow Depth

Station Depth Elevation

Earthquake Activity

City Distance Mag. Time & Date
Minimum magnitude displayed is 2.5.

Coastal Water Temperatures

Place Temperature

Stations

Nearby Weather Stations

Station Location Temp. Windchill Dew Point Humidity Wind Precip. Elev Updated Type
                   

Watches & Warnings

There are currently no watches in effect.